Time;durP1;ratioP1;P1;durP2;ratioP2;P2;SDS_P1;SDS_P2;PMS_P1;PMS_P2;Temp;Humidity;BMP_temperature;BMP_pressure;BME280_temperature;BME280_humidity;BME280_pressure;Samples;Min_cycle;Max_cycle;Signal;HPM_P1;HPM_P2
2022/09/05 00:02:02;;;;;;;4.82;4.32;;;;;;;20.84;92.55;98797.31;5054148;28;20168;-52
2022/09/05 00:04:51;;;;;;;5.18;3.83;;;;;;;20.69;93.54;98804.19;5054032;28;20185;-53
2022/09/05 00:07:22;;;;;;;3.80;3.50;;;;;;;20.55;95.67;98810.03;5053943;28;20254;-53
2022/09/05 00:10:21;;;;;;;3.92;3.63;;;;;;;20.59;94.48;98806.13;5054323;28;20211;-52
2022/09/05 00:12:49;;;;;;;4.68;3.80;;;;;;;20.42;96.49;98823.63;5054235;28;20169;-52
2022/09/05 00:15:42;;;;;;;3.90;3.60;;;;;;;20.43;96.41;98824.44;5053889;28;20173;-52
2022/09/05 00:18:07;;;;;;;3.97;3.67;;;;;;;20.28;97.40;98824.19;5054466;28;20153;-53
2022/09/05 00:21:07;;;;;;;6.18;4.18;;;;;;;20.28;98.05;98828.66;5053824;28;20199;-52
2022/09/05 00:23:35;;;;;;;4.35;3.92;;;;;;;20.26;99.38;98838.47;5043032;28;20191;-53
2022/09/05 00:26:06;;;;;;;3.70;3.45;;;;;;;20.33;97.57;98842.94;5053597;28;20185;-53
2022/09/05 00:29:00;;;;;;;3.80;3.50;;;;;;;20.34;97.75;98828.81;5053735;28;20190;-53
2022/09/05 00:31:56;;;;;;;4.72;3.88;;;;;;;20.31;96.23;98836.19;5054164;28;20161;-52
2022/09/05 00:34:43;;;;;;;4.10;3.75;;;;;;;20.45;96.59;98835.66;5053781;28;20169;-52
2022/09/05 00:37:10;;;;;;;3.78;3.55;;;;;;;20.48;96.47;98835.31;5053472;28;20191;-52
2022/09/05 00:39:41;;;;;;;4.78;4.38;;;;;;;20.39;97.79;98828.38;5053642;28;20208;-52
2022/09/05 00:42:20;;;;;;;4.30;3.97;;;;;;;20.36;99.55;98821.63;5053711;28;20172;-53
2022/09/05 00:44:50;;;;;;;4.10;3.75;;;;;;;20.12;100.00;98824.09;5053667;28;20611;-52
2022/09/05 00:47:43;;;;;;;4.88;4.30;;;;;;;20.25;100.00;98827.16;5053274;28;20196;-52
2022/09/05 00:50:26;;;;;;;4.90;4.50;;;;;;;20.31;99.81;98813.38;5053557;28;20174;-53
2022/09/05 00:53:04;;;;;;;3.95;3.55;;;;;;;20.46;97.83;98814.44;5053257;28;20162;-53
2022/09/05 00:55:46;;;;;;;4.55;3.78;;;;;;;20.57;97.97;98829.13;5053457;28;20169;-52
2022/09/05 00:58:40;;;;;;;3.70;3.40;;;;;;;20.54;97.89;98832.06;5053555;28;20158;-53
2022/09/05 01:01:23;;;;;;;4.40;4.00;;;;;;;20.59;97.70;98822.72;5053238;28;20271;-52
2022/09/05 01:04:21;;;;;;;3.85;3.55;;;;;;;20.50;98.17;98813.16;5052938;28;20191;-52
2022/09/05 01:07:14;;;;;;;5.65;3.38;;;;;;;20.28;99.78;98818.13;5052843;28;20267;-52
2022/09/05 01:09:45;;;;;;;3.67;3.38;;;;;;;20.13;100.00;98824.91;5052858;28;20275;-52
2022/09/05 01:12:43;;;;;;;4.90;3.55;;;;;;;20.00;100.00;98819.22;5051870;28;20173;-52
2022/09/05 01:15:27;;;;;;;4.00;3.47;;;;;;;19.93;100.00;98824.25;5053021;28;20192;-52
2022/09/05 01:17:55;;;;;;;4.25;3.95;;;;;;;20.01;100.00;98821.72;5052764;28;20552;-52
2022/09/05 01:20:38;;;;;;;4.60;3.60;;;;;;;19.89;100.00;98815.06;5052879;28;20597;-52
2022/09/05 01:23:39;;;;;;;3.75;3.40;;;;;;;19.98;100.00;98827.25;5053157;28;20212;-52
2022/09/05 01:26:30;;;;;;;4.20;3.90;;;;;;;19.97;100.00;98828.25;5053007;28;20517;-52
2022/09/05 01:29:24;;;;;;;4.40;4.00;;;;;;;19.97;100.00;98833.50;5043416;28;20270;-52
2022/09/05 01:32:19;;;;;;;3.80;3.55;;;;;;;19.94;100.00;98822.47;5034254;28;20193;-52
2022/09/05 01:34:48;;;;;;;4.00;3.45;;;;;;;19.90;100.00;98823.75;5052526;28;20203;-52
2022/09/05 01:37:25;;;;;;;4.00;3.63;;;;;;;19.82;100.00;98821.88;5052546;28;20298;-52
2022/09/05 01:40:16;;;;;;;3.75;3.45;;;;;;;19.70;100.00;98823.09;5052443;28;20157;-53
2022/09/05 01:42:56;;;;;;;4.05;3.75;;;;;;;19.66;100.00;98819.16;5052248;28;20184;-52
2022/09/05 01:45:51;;;;;;;3.95;3.65;;;;;;;19.71;100.00;98822.09;5052495;28;20187;-52
2022/09/05 01:48:46;;;;;;;4.00;3.67;;;;;;;19.77;100.00;98825.94;5052416;28;20164;-52
2022/09/05 01:51:17;;;;;;;4.53;3.58;;;;;;;19.61;100.00;98817.94;5052277;28;20168;-52
2022/09/05 01:54:13;;;;;;;3.88;3.58;;;;;;;19.60;100.00;98822.38;5052400;28;20184;-52
2022/09/05 01:57:13;;;;;;;3.78;3.45;;;;;;;19.66;100.00;98818.31;5052259;28;20559;-52
2022/09/05 02:00:03;;;;;;;4.55;4.15;;;;;;;19.60;100.00;98816.28;5052130;28;20153;-52
2022/09/05 02:03:17;;;;;;;4.75;3.30;;;;;;;19.66;100.00;98813.06;5052338;28;20642;-52
2022/09/05 02:06:26;;;;;;;3.42;3.22;;;;;;;19.72;100.00;98815.06;5051827;28;20666;-53
2022/09/05 02:09:05;;;;;;;4.32;3.22;;;;;;;19.68;100.00;98817.19;5034084;28;20567;-52
2022/09/05 02:11:42;;;;;;;5.72;3.50;;;;;;;19.75;100.00;98818.22;5052185;28;20196;-52
2022/09/05 02:14:38;;;;;;;4.35;3.70;;;;;;;19.75;100.00;98820.84;5052277;28;20238;-52
2022/09/05 02:17:20;;;;;;;3.35;3.10;;;;;;;19.66;100.00;98823.56;5051980;28;20158;-52
2022/09/05 02:20:10;;;;;;;3.70;3.40;;;;;;;19.62;100.00;98820.41;5052091;28;20176;-52
2022/09/05 02:23:08;;;;;;;5.07;4.03;;;;;;;19.53;100.00;98825.75;5040633;28;20709;-52
2022/09/05 02:25:47;;;;;;;4.97;3.83;;;;;;;19.57;100.00;98821.81;5055881;28;20272;-53
2022/09/05 02:28:26;;;;;;;4.28;3.90;;;;;;;19.50;100.00;98820.78;5056136;28;20211;-53
2022/09/05 02:30:57;;;;;;;4.05;3.65;;;;;;;19.67;100.00;98830.44;5055938;28;20165;-53
2022/09/05 02:33:26;;;;;;;3.85;3.55;;;;;;;19.70;100.00;98823.09;5055918;28;20658;-52
2022/09/05 02:36:08;;;;;;;3.95;3.65;;;;;;;19.75;100.00;98830.53;5055785;28;20172;-52
2022/09/05 02:38:45;;;;;;;4.15;3.55;;;;;;;19.68;100.00;98829.47;5055766;28;20206;-52
2022/09/05 02:41:31;;;;;;;3.97;3.67;;;;;;;19.79;100.00;98831.88;5055924;28;20218;-52
2022/09/05 02:44:08;;;;;;;3.75;3.45;;;;;;;19.59;100.00;98817.28;5055943;28;20157;-52
2022/09/05 02:46:48;;;;;;;3.90;3.60;;;;;;;19.46;100.00;98836.00;5055792;28;20189;-52
2022/09/05 02:49:30;;;;;;;3.60;3.30;;;;;;;19.61;100.00;98824.03;5055689;28;20229;-52
2022/09/05 02:52:12;;;;;;;4.00;3.63;;;;;;;19.52;100.00;98834.59;5055477;28;20169;-52
2022/09/05 02:54:46;;;;;;;4.10;3.28;;;;;;;19.61;100.00;98828.44;5055448;28;20169;-53
2022/09/05 02:57:30;;;;;;;5.63;3.05;;;;;;;19.61;100.00;98831.06;5055714;28;20549;-53
2022/09/05 03:00:01;;;;;;;3.47;2.72;;;;;;;19.75;100.00;98831.34;5055444;28;20170;-52
2022/09/05 03:02:53;;;;;;;5.05;3.38;;;;;;;19.63;100.00;98829.09;5055416;28;20162;-52
2022/09/05 03:05:24;;;;;;;4.00;3.58;;;;;;;19.79;100.00;98829.25;5055350;28;20177;-52
2022/09/05 03:08:08;;;;;;;4.20;3.40;;;;;;;19.80;100.00;98836.13;5055087;28;20216;-52
2022/09/05 03:10:42;;;;;;;6.97;4.20;;;;;;;19.68;100.00;98834.72;5055524;28;20565;-52
2022/09/05 03:13:20;;;;;;;5.00;3.80;;;;;;;19.46;100.00;98833.38;5055415;28;20184;-52
2022/09/05 03:15:57;;;;;;;4.30;3.60;;;;;;;19.52;100.00;98830.16;5055652;28;20244;-53
2022/09/05 03:18:28;;;;;;;5.55;3.92;;;;;;;19.47;100.00;98836.84;5055325;28;20218;-52
2022/09/05 03:21:21;;;;;;;4.03;3.60;;;;;;;19.57;100.00;98833.16;5055323;28;20551;-52
2022/09/05 03:24:04;;;;;;;4.97;4.57;;;;;;;19.71;100.00;98837.06;5055525;28;20169;-52
2022/09/05 03:27:07;;;;;;;4.53;4.00;;;;;;;19.67;100.00;98831.28;5055084;28;20223;-52
2022/09/05 03:29:55;;;;;;;3.88;3.53;;;;;;;19.56;100.00;98838.56;5054745;28;20632;-52
2022/09/05 03:32:29;;;;;;;5.60;3.72;;;;;;;19.59;100.00;98835.66;5054699;28;20188;-52
2022/09/05 03:35:26;;;;;;;5.57;4.35;;;;;;;19.46;100.00;98835.22;5053577;28;20181;-52
2022/09/05 03:38:28;;;;;;;8.45;4.53;;;;;;;19.44;100.00;98847.63;5054877;28;20170;-52
2022/09/05 03:41:12;;;;;;;4.88;4.22;;;;;;;19.43;100.00;98841.56;5054566;28;20248;-52
2022/09/05 03:44:02;;;;;;;4.85;4.07;;;;;;;19.35;100.00;98845.91;5054551;28;20169;-52
2022/09/05 03:46:46;;;;;;;4.70;4.00;;;;;;;19.29;100.00;98842.06;5054718;28;20687;-52
2022/09/05 03:49:12;;;;;;;6.78;4.35;;;;;;;19.31;100.00;98845.41;5054518;28;20195;-52
2022/09/05 03:51:43;;;;;;;4.57;4.07;;;;;;;19.28;100.00;98850.94;5054307;28;20216;-52
2022/09/05 03:54:32;;;;;;;4.97;4.32;;;;;;;19.35;100.00;98856.41;5054388;28;20235;-52
2022/09/05 03:57:09;;;;;;;8.80;5.20;;;;;;;19.25;100.00;98858.28;5041738;28;20622;-52
2022/09/05 03:59:43;;;;;;;7.03;4.20;;;;;;;19.39;100.00;98866.47;5054372;28;20161;-52
2022/09/05 04:02:12;;;;;;;4.88;4.38;;;;;;;19.38;100.00;98869.22;5054174;28;20257;-52
2022/09/05 04:04:40;;;;;;;5.28;4.68;;;;;;;19.46;100.00;98871.97;5054607;28;20619;-52
2022/09/05 04:07:15;;;;;;;5.63;4.68;;;;;;;19.45;100.00;98854.53;5053882;28;20686;-52
2022/09/05 04:09:56;;;;;;;4.93;4.53;;;;;;;19.51;100.00;98874.94;5054096;28;20172;-52
2022/09/05 04:12:27;;;;;;;8.05;5.30;;;;;;;19.45;100.00;98880.78;5036156;28;20661;-52
2022/09/05 04:15:14;;;;;;;5.70;5.00;;;;;;;19.59;100.00;98883.72;5054244;28;20176;-53
2022/09/05 04:17:53;;;;;;;7.88;4.75;;;;;;;19.56;100.00;98888.44;5053850;28;20165;-52
2022/09/05 04:20:29;;;;;;;5.05;4.38;;;;;;;19.64;100.00;98885.91;5054097;28;20743;-52
2022/09/05 04:23:00;;;;;;;4.80;4.35;;;;;;;19.59;100.00;98888.97;5053924;28;20168;-52
2022/09/05 04:26:00;;;;;;;5.10;4.18;;;;;;;19.59;100.00;98893.41;5053782;28;20268;-52
2022/09/05 04:28:44;;;;;;;4.45;4.03;;;;;;;19.63;100.00;98895.56;5023109;28;20224;-52
2022/09/05 04:31:29;;;;;;;6.18;3.90;;;;;;;19.63;100.00;98892.94;5053726;28;20161;-53
2022/09/05 04:34:29;;;;;;;10.70;3.90;;;;;;;19.59;100.00;98901.28;5053931;28;20158;-52
2022/09/05 04:37:04;;;;;;;4.30;3.90;;;;;;;19.71;100.00;98900.09;5011172;28;20187;-52
2022/09/05 04:39:31;;;;;;;5.60;4.45;;;;;;;19.72;100.00;98909.59;5053566;28;20175;-52
2022/09/05 04:42:18;;;;;;;5.10;4.00;;;;;;;19.77;100.00;98902.09;5053689;28;20262;-52
2022/09/05 04:44:47;;;;;;;9.18;4.60;;;;;;;19.88;100.00;98905.31;5053694;28;20203;-52
2022/09/05 04:47:19;;;;;;;4.50;4.10;;;;;;;19.99;99.27;98910.34;5053035;28;20193;-52
2022/09/05 04:50:09;;;;;;;8.57;4.10;;;;;;;20.13;97.48;98906.38;5053312;28;20180;-52
2022/09/05 04:52:49;;;;;;;4.60;4.03;;;;;;;20.20;96.89;98902.16;5053230;28;20629;-52
2022/09/05 04:55:46;;;;;;;4.57;3.97;;;;;;;20.17;97.28;98910.38;5053692;28;20184;-52
2022/09/05 04:58:33;;;;;;;5.95;4.32;;;;;;;20.31;94.69;98913.25;5046983;28;20661;-52
2022/09/05 05:01:05;;;;;;;4.00;3.70;;;;;;;20.28;95.81;98920.63;5053123;28;20599;-52
2022/09/05 05:03:34;;;;;;;5.80;4.63;;;;;;;20.16;96.13;98919.22;5053027;28;20161;-52
2022/09/05 05:06:36;;;;;;;4.97;4.47;;;;;;;20.19;95.57;98918.91;5052756;28;20322;-51
2022/09/05 05:09:27;;;;;;;6.03;4.25;;;;;;;20.08;92.39;98919.16;5040035;28;20192;-52
2022/09/05 05:12:01;;;;;;;4.45;3.95;;;;;;;20.13;93.60;98914.25;5053122;28;20201;-52
2022/09/05 05:14:45;;;;;;;4.95;3.78;;;;;;;20.10;93.67;98920.66;5052922;28;20168;-52
2022/09/05 05:17:19;;;;;;;8.85;4.80;;;;;;;20.18;93.95;98928.63;5053034;28;20161;-52
2022/09/05 05:19:51;;;;;;;5.32;4.57;;;;;;;20.21;93.71;98935.34;5053241;28;20166;-52
2022/09/05 05:22:17;;;;;;;4.55;4.05;;;;;;;20.26;94.14;98930.44;5052997;28;20180;-52
2022/09/05 05:24:47;;;;;;;5.50;4.60;;;;;;;20.33;94.13;98931.50;5052653;28;20560;-51
2022/09/05 05:27:54;;;;;;;6.72;4.47;;;;;;;20.43;92.41;98938.31;5052448;28;20188;-51
2022/09/05 05:30:28;;;;;;;4.30;3.90;;;;;;;20.38;92.16;98934.47;4972440;28;20172;-51
2022/09/05 05:32:55;;;;;;;5.82;4.43;;;;;;;20.33;93.37;98942.03;5040760;28;20230;-51
2022/09/05 05:35:32;;;;;;;6.25;4.00;;;;;;;20.37;90.79;98949.44;5052423;28;20227;-51
2022/09/05 05:38:15;;;;;;;4.63;4.22;;;;;;;20.40;90.91;98950.94;5052398;28;20252;-54
2022/09/05 05:41:04;;;;;;;6.82;4.25;;;;;;;20.40;90.80;98948.31;5052587;28;20181;-51
2022/09/05 05:43:40;;;;;;;4.65;4.25;;;;;;;20.46;90.42;98948.50;5052649;28;20181;-51
2022/09/05 05:46:07;;;;;;;8.48;3.85;;;;;;;20.39;90.20;98957.19;5052442;28;20294;-51
2022/09/05 05:48:38;;;;;;;5.88;4.50;;;;;;;20.26;89.97;98957.56;5052377;28;20678;-51
2022/09/05 05:51:22;;;;;;;4.60;3.58;;;;;;;20.24;90.10;98958.69;5052220;28;20173;-51
2022/09/05 05:54:09;;;;;;;4.85;3.80;;;;;;;20.29;90.56;98969.59;5052395;28;20191;-50
2022/09/05 05:56:38;;;;;;;5.40;4.18;;;;;;;20.19;91.02;98961.78;5052381;28;20528;-51
2022/09/05 05:59:25;;;;;;;6.63;4.57;;;;;;;20.28;91.16;98965.31;5051801;28;20203;-51
2022/09/05 06:02:47;;;;;;;4.57;4.13;;;;;;;20.14;92.53;98965.84;5052521;28;20168;-51
2022/09/05 06:05:34;;;;;;;4.50;4.00;;;;;;;20.35;91.64;98971.59;4971426;28;20239;-51
2022/09/05 06:08:08;;;;;;;4.45;4.05;;;;;;;20.29;91.65;98970.41;4971368;28;20339;-51
2022/09/05 06:11:01;;;;;;;8.15;3.97;;;;;;;20.28;91.58;98957.44;5034910;28;20189;-52
2022/09/05 06:13:59;;;;;;;5.63;4.43;;;;;;;20.39;90.52;98967.72;5052022;28;20630;-52
2022/09/05 06:16:55;;;;;;;4.05;3.60;;;;;;;20.39;89.00;98967.72;5052179;28;20232;-52
2022/09/05 06:19:32;;;;;;;3.22;3.03;;;;;;;20.47;87.51;98975.63;5052005;28;20195;-52
2022/09/05 06:22:03;;;;;;;3.47;3.17;;;;;;;20.44;88.29;98973.31;5052108;28;20176;-52
2022/09/05 06:24:41;;;;;;;7.82;4.32;;;;;;;20.49;86.86;98984.19;5052090;28;20177;-52
2022/09/05 06:27:18;;;;;;;11.13;4.63;;;;;;;20.46;88.28;98985.31;5051947;28;20201;-52
2022/09/05 06:29:58;;;;;;;7.65;3.80;;;;;;;20.55;87.88;98980.94;5051828;28;20157;-51
2022/09/05 06:32:24;;;;;;;4.43;3.85;;;;;;;20.60;88.83;98983.94;5051868;28;20214;-52
2022/09/05 06:35:15;;;;;;;4.47;4.07;;;;;;;20.61;90.21;98988.22;5051720;28;20168;-52
2022/09/05 06:37:58;;;;;;;5.95;4.00;;;;;;;20.85;88.27;98994.47;5051887;28;20157;-52
2022/09/05 06:40:44;;;;;;;4.95;3.78;;;;;;;20.95;87.15;98989.97;5051637;28;20169;-52
2022/09/05 06:43:25;;;;;;;4.00;3.70;;;;;;;21.00;87.09;98994.75;5051995;28;20601;-52
2022/09/05 06:46:05;;;;;;;5.60;4.20;;;;;;;21.07;87.27;98995.78;5052202;28;20222;-52
2022/09/05 06:48:36;;;;;;;6.65;4.60;;;;;;;21.05;87.81;98989.88;5051680;28;20159;-52
2022/09/05 06:51:08;;;;;;;6.85;4.60;;;;;;;20.88;88.24;98995.97;5051645;28;20169;-52
2022/09/05 06:53:48;;;;;;;6.40;4.03;;;;;;;21.05;87.55;98997.75;5051583;28;20227;-52
2022/09/05 06:56:32;;;;;;;5.45;3.90;;;;;;;21.05;86.98;98997.75;5051493;28;20177;-52
2022/09/05 06:59:16;;;;;;;4.32;3.70;;;;;;;21.17;85.90;99001.78;5051811;28;20165;-52
2022/09/05 07:02:07;;;;;;;4.00;3.63;;;;;;;21.34;83.70;99006.13;5051736;28;20165;-52
2022/09/05 07:04:43;;;;;;;4.00;3.67;;;;;;;21.45;83.58;99011.13;5051487;28;20162;-52
2022/09/05 07:07:31;;;;;;;9.07;3.97;;;;;;;21.36;84.59;98998.88;5051154;28;20339;-52
2022/09/05 07:10:21;;;;;;;5.97;3.88;;;;;;;21.46;83.28;99002.22;5053997;28;20165;-52
2022/09/05 07:12:58;;;;;;;3.92;3.35;;;;;;;21.58;79.03;99014.97;5055519;28;20188;-52
2022/09/05 07:15:34;;;;;;;2.60;2.42;;;;;;;21.80;78.81;99011.75;5055174;28;20168;-52
2022/09/05 07:18:14;;;;;;;2.70;2.50;;;;;;;22.02;73.11;99015.59;5055042;28;20169;-52
2022/09/05 07:21:01;;;;;;;4.10;2.70;;;;;;;22.27;72.98;99019.91;5055132;28;20162;-52
2022/09/05 07:23:48;;;;;;;6.72;3.13;;;;;;;22.45;72.93;99018.81;5055301;28;20196;-52
2022/09/05 07:26:17;;;;;;;2.97;2.58;;;;;;;22.60;73.49;99018.97;5055082;28;20208;-52
2022/09/05 07:28:48;;;;;;;2.95;2.75;;;;;;;22.54;70.82;99022.25;5055165;28;20169;-52
2022/09/05 07:31:22;;;;;;;3.60;2.63;;;;;;;22.71;70.46;99021.25;5055059;28;20169;-52
2022/09/05 07:33:48;;;;;;;2.60;2.40;;;;;;;22.68;66.97;99014.50;5055146;28;20608;-52
2022/09/05 07:36:33;;;;;;;2.90;2.17;;;;;;;22.44;68.05;99011.88;5054693;28;20665;-52
2022/09/05 07:39:00;;;;;;;2.63;2.42;;;;;;;22.69;67.30;99020.59;5055072;28;20260;-52
2022/09/05 07:41:29;;;;;;;3.67;2.63;;;;;;;22.72;67.38;99021.09;5054543;28;20630;-52
2022/09/05 07:44:07;;;;;;;2.63;2.42;;;;;;;22.77;67.43;99016.16;5054550;28;20177;-52
2022/09/05 07:46:37;;;;;;;4.30;2.72;;;;;;;22.53;67.18;99007.41;5054612;28;20270;-53
2022/09/05 07:49:17;;;;;;;2.80;2.30;;;;;;;22.67;67.08;99019.97;5054820;28;20561;-53
2022/09/05 07:51:53;;;;;;;2.55;2.40;;;;;;;22.71;67.74;99022.09;5054711;28;20169;-53
2022/09/05 07:54:32;;;;;;;5.70;2.50;;;;;;;22.59;68.49;99022.59;5054705;28;20181;-53
2022/09/05 07:57:04;;;;;;;4.05;2.80;;;;;;;22.55;69.71;99008.09;5054682;28;20161;-53
2022/09/05 07:59:36;;;;;;;4.32;2.55;;;;;;;22.59;69.25;99017.31;5054258;28;20181;-53
2022/09/05 08:02:03;;;;;;;4.60;2.75;;;;;;;22.51;68.71;99009.41;5054556;28;20157;-53
2022/09/05 08:04:28;;;;;;;4.80;3.13;;;;;;;22.72;70.10;99009.72;5054408;28;20176;-53
2022/09/05 08:07:19;;;;;;;3.05;2.83;;;;;;;23.02;69.64;99011.66;5053959;28;20234;-53
2022/09/05 08:09:54;;;;;;;3.38;2.90;;;;;;;23.14;68.00;99012.94;5054137;28;20196;-51
2022/09/05 08:12:25;;;;;;;5.72;2.60;;;;;;;23.00;66.59;98997.78;5054306;28;20169;-53
2022/09/05 08:15:07;;;;;;;2.72;2.53;;;;;;;23.24;67.46;99011.78;5054271;28;20158;-53
2022/09/05 08:17:44;;;;;;;3.42;3.13;;;;;;;23.50;65.93;99003.59;5053931;28;20177;-53
2022/09/05 08:20:37;;;;;;;4.07;3.20;;;;;;;23.68;63.81;99005.81;5053778;28;20196;-52
2022/09/05 08:23:14;;;;;;;3.88;3.20;;;;;;;23.72;64.29;98994.91;5054175;28;20248;-52
2022/09/05 08:25:53;;;;;;;4.30;3.03;;;;;;;23.90;63.27;99000.78;5053786;28;20177;-52
2022/09/05 08:28:39;;;;;;;35.88;32.42;;;;;;;23.83;63.34;99008.56;5053947;28;20616;-52
2022/09/05 08:31:18;;;;;;;5.95;4.85;;;;;;;23.85;63.59;99007.38;5054043;28;20240;-52
2022/09/05 08:33:47;;;;;;;4.45;3.33;;;;;;;23.97;63.65;99012.31;5053955;28;20165;-52
2022/09/05 08:36:35;;;;;;;5.07;3.45;;;;;;;24.13;62.72;99014.84;5053626;28;20191;-52
2022/09/05 08:39:03;;;;;;;3.95;3.55;;;;;;;24.26;62.33;99005.34;5054110;28;20177;-52
2022/09/05 08:42:06;;;;;;;6.15;3.75;;;;;;;24.28;61.98;99005.97;5053528;28;20173;-52
2022/09/05 08:44:59;;;;;;;4.10;3.35;;;;;;;24.31;61.44;99008.28;5022428;28;20197;-52
2022/09/05 08:47:34;;;;;;;3.97;3.00;;;;;;;24.19;61.73;99010.50;5053892;28;20654;-52
2022/09/05 08:50:26;;;;;;;3.50;3.20;;;;;;;24.06;62.05;99013.91;5053787;28;20683;-52
2022/09/05 08:52:57;;;;;;;3.20;2.80;;;;;;;23.99;62.07;99011.13;5053626;28;20650;-52
2022/09/05 08:55:48;;;;;;;3.65;3.30;;;;;;;23.95;61.82;99009.84;5053252;28;20660;-52
2022/09/05 08:58:47;;;;;;;5.05;3.60;;;;;;;23.98;62.05;99005.00;5053229;28;20619;-52
2022/09/05 09:01:23;;;;;;;3.10;2.65;;;;;;;23.95;61.35;98998.44;5053408;28;20560;-52
2022/09/05 09:04:10;;;;;;;4.13;3.83;;;;;;;24.07;60.89;98999.69;5053151;28;20165;-52
2022/09/05 09:07:03;;;;;;;6.03;3.60;;;;;;;23.98;60.69;99004.22;5052871;28;20221;-52
2022/09/05 09:09:31;;;;;;;3.65;3.35;;;;;;;24.03;60.42;99005.31;5052978;28;20235;-52
2022/09/05 09:12:12;;;;;;;7.75;3.85;;;;;;;24.07;60.46;98999.69;5053118;28;20208;-52
2022/09/05 09:14:48;;;;;;;5.30;3.85;;;;;;;23.93;59.48;98988.03;5052862;28;20723;-52
2022/09/05 09:17:40;;;;;;;4.30;4.00;;;;;;;23.94;60.34;98991.53;5053048;28;20179;-52
2022/09/05 09:20:41;;;;;;;4.10;3.80;;;;;;;23.98;60.16;98991.00;5052926;28;20240;-53
2022/09/05 09:23:16;;;;;;;4.00;3.70;;;;;;;24.00;58.09;98977.59;5035244;28;20197;-52
2022/09/05 09:26:05;;;;;;;3.88;3.58;;;;;;;24.02;57.90;98982.53;5052652;28;20663;-52
2022/09/05 09:29:05;;;;;;;3.35;3.05;;;;;;;24.12;58.62;98981.47;5052526;28;20684;-52
2022/09/05 09:31:55;;;;;;;3.53;3.22;;;;;;;24.31;58.49;98987.94;5052823;28;20165;-52
2022/09/05 09:34:27;;;;;;;3.38;3.08;;;;;;;24.25;58.33;98983.34;5052147;28;20223;-52
2022/09/05 09:37:24;;;;;;;3.17;2.97;;;;;;;24.13;58.13;98983.13;5052776;28;20244;-52
2022/09/05 09:39:58;;;;;;;2.90;2.70;;;;;;;23.90;56.32;98977.00;5052543;28;20173;-52
2022/09/05 09:42:46;;;;;;;5.07;2.90;;;;;;;24.12;57.81;98984.13;5052536;28;20214;-53
2022/09/05 09:45:26;;;;;;;2.40;2.30;;;;;;;24.36;55.68;98980.28;5052274;28;20180;-53
2022/09/05 09:48:14;;;;;;;2.53;2.42;;;;;;;24.64;52.43;98984.03;5052211;28;20583;-53
2022/09/05 09:50:54;;;;;;;5.55;2.75;;;;;;;24.76;53.26;98981.78;5052515;28;20192;-53
2022/09/05 09:53:32;;;;;;;3.22;3.03;;;;;;;24.85;53.07;98989.44;5052288;28;20163;-53
2022/09/05 09:56:19;;;;;;;2.97;2.78;;;;;;;24.79;52.55;98992.00;5052476;28;20172;-53
2022/09/05 09:59:22;;;;;;;2.40;2.20;;;;;;;25.04;52.39;98996.03;5052383;28;20560;-53
2022/09/05 10:02:19;;;;;;;2.20;2.10;;;;;;;25.17;50.64;98986.47;5007879;28;20199;-53
2022/09/05 10:05:17;;;;;;;2.55;2.45;;;;;;;25.36;50.54;98993.88;5052309;28;20157;-53
2022/09/05 10:07:48;;;;;;;2.38;2.22;;;;;;;25.42;49.95;99003.75;5014765;28;20267;-53
2022/09/05 10:10:38;;;;;;;2.38;2.17;;;;;;;25.52;49.40;98996.34;5051975;28;20184;-53
2022/09/05 10:13:21;;;;;;;3.30;2.20;;;;;;;25.16;48.56;98995.41;5051956;28;20166;-53
2022/09/05 10:16:24;;;;;;;2.38;2.28;;;;;;;25.18;49.83;98987.28;5052154;28;20173;-53
2022/09/05 10:18:59;;;;;;;2.42;2.30;;;;;;;25.52;49.75;99001.66;5052165;28;20188;-53
2022/09/05 10:21:57;;;;;;;2.60;2.40;;;;;;;25.81;48.88;99000.75;5051952;28;20167;-53
2022/09/05 10:24:51;;;;;;;2.38;2.22;;;;;;;26.07;48.01;99001.91;5051906;28;20149;-53
2022/09/05 10:27:24;;;;;;;2.85;2.40;;;;;;;26.29;48.26;99000.09;5052068;28;20200;-53
2022/09/05 10:30:30;;;;;;;2.65;2.45;;;;;;;26.32;47.09;98999.69;5052053;28;20184;-53
2022/09/05 10:33:07;;;;;;;3.83;2.63;;;;;;;26.32;47.03;98997.03;5051824;28;20161;-53
2022/09/05 10:35:37;;;;;;;2.80;2.58;;;;;;;26.43;47.35;98992.06;5051880;28;20227;-53
2022/09/05 10:38:25;;;;;;;2.40;2.30;;;;;;;25.96;47.34;98978.50;5051663;28;20213;-53
2022/09/05 10:40:50;;;;;;;2.40;2.20;;;;;;;26.37;46.92;98989.34;5051696;28;20169;-53
2022/09/05 10:43:18;;;;;;;2.50;2.30;;;;;;;26.67;45.75;98993.50;5051675;28;20165;-53
2022/09/05 10:46:23;;;;;;;2.63;2.22;;;;;;;26.83;46.41;98988.72;5055975;28;20176;-53
2022/09/05 10:48:53;;;;;;;2.42;2.20;;;;;;;26.57;45.28;98993.84;5055265;28;20204;-53
2022/09/05 10:51:31;;;;;;;2.92;2.65;;;;;;;26.60;45.62;98990.78;5055886;28;20235;-54
2022/09/05 10:54:38;;;;;;;2.38;2.28;;;;;;;26.60;45.13;98993.44;5055841;28;20549;-52
2022/09/05 10:57:28;;;;;;;3.00;2.03;;;;;;;26.61;45.08;98979.16;4975222;28;20183;-53
2022/09/05 11:00:06;;;;;;;2.88;2.35;;;;;;;26.78;44.83;98977.88;5051816;28;20200;-55
2022/09/05 11:02:35;;;;;;;2.42;2.22;;;;;;;27.09;45.65;98972.13;5037531;28;20208;-56
2022/09/05 11:05:21;;;;;;;5.20;2.20;;;;;;;27.31;43.99;98969.22;5055256;28;20181;-54
2022/09/05 11:08:04;;;;;;;2.63;2.05;;;;;;;27.49;43.33;98972.19;5055247;28;20221;-52
2022/09/05 11:11:00;;;;;;;2.05;1.95;;;;;;;27.63;43.94;98965.88;5055412;28;20188;-53
2022/09/05 11:13:37;;;;;;;3.20;2.90;;;;;;;27.64;43.33;98967.50;5055471;28;20165;-53
2022/09/05 11:16:15;;;;;;;2.25;2.05;;;;;;;27.77;43.53;98966.75;5055216;28;20552;-53
2022/09/05 11:18:55;;;;;;;2.40;1.92;;;;;;;27.90;42.99;98956.16;5055329;28;20176;-54
2022/09/05 11:21:35;;;;;;;3.38;2.20;;;;;;;27.57;42.78;98956.03;5055032;28;20161;-54
2022/09/05 11:24:27;;;;;;;2.33;2.22;;;;;;;27.64;44.24;98951.56;5055024;28;20237;-54
2022/09/05 11:26:58;;;;;;;2.85;2.47;;;;;;;28.10;43.76;98952.50;5055428;28;20185;-54
2022/09/05 11:29:49;;;;;;;2.50;2.40;;;;;;;28.37;42.22;98948.88;5054795;28;20176;-54
2022/09/05 11:32:53;;;;;;;5.00;2.42;;;;;;;28.48;41.54;98947.44;5054416;28;20192;-54
2022/09/05 11:35:22;;;;;;;2.33;2.13;;;;;;;28.00;41.18;98936.16;5054731;28;20665;-53
2022/09/05 11:38:10;;;;;;;2.17;2.05;;;;;;;28.18;42.14;98925.72;5054679;28;20654;-54
2022/09/05 11:40:44;;;;;;;7.40;2.60;;;;;;;28.35;41.36;98934.94;5054577;28;20184;-54
2022/09/05 11:43:47;;;;;;;2.05;1.95;;;;;;;28.63;41.08;98932.09;5054773;28;20564;-54
2022/09/05 11:46:25;;;;;;;1.98;1.83;;;;;;;28.10;38.80;98919.78;5054531;28;20173;-54
2022/09/05 11:49:25;;;;;;;1.80;1.70;;;;;;;28.31;39.86;98925.72;5054665;28;20180;-54
2022/09/05 11:52:20;;;;;;;2.38;1.98;;;;;;;28.08;40.19;98925.28;5054481;28;20165;-54
2022/09/05 11:55:16;;;;;;;2.08;1.92;;;;;;;28.01;40.02;98920.97;5054559;28;20219;-54
2022/09/05 11:58:07;;;;;;;1.90;1.80;;;;;;;27.84;40.86;98909.09;5054525;28;20181;-54
2022/09/05 12:00:44;;;;;;;2.30;1.73;;;;;;;27.47;41.53;98905.06;5054398;28;20168;-54
2022/09/05 12:03:37;;;;;;;3.72;1.60;;;;;;;27.17;42.36;98909.03;5054351;28;20169;-54
2022/09/05 12:06:21;;;;;;;1.88;1.77;;;;;;;27.36;42.31;98904.84;5054240;28;20197;-54
2022/09/05 12:08:50;;;;;;;2.67;2.00;;;;;;;27.61;40.49;98906.75;5054093;28;20703;-54
2022/09/05 12:11:42;;;;;;;1.58;1.48;;;;;;;27.82;40.96;98901.28;5054359;28;20181;-54
2022/09/05 12:14:26;;;;;;;2.00;1.60;;;;;;;27.94;40.71;98905.00;5054556;28;20252;-54
2022/09/05 12:17:06;;;;;;;1.75;1.65;;;;;;;28.02;39.11;98906.66;5053942;28;20157;-54
2022/09/05 12:19:46;;;;;;;2.88;1.60;;;;;;;27.96;39.90;98900.31;5054199;28;20161;-54
2022/09/05 12:22:29;;;;;;;1.73;1.63;;;;;;;27.87;40.04;98898.06;5054184;28;20214;-54
2022/09/05 12:25:39;;;;;;;1.67;1.58;;;;;;;27.86;40.61;98891.91;5054137;28;20166;-54
2022/09/05 12:28:10;;;;;;;2.47;2.25;;;;;;;27.71;40.77;98888.59;5049762;28;20204;-54
2022/09/05 12:30:38;;;;;;;2.42;2.05;;;;;;;28.26;40.04;98895.41;5053768;28;20176;-54
2022/09/05 12:33:12;;;;;;;2.15;2.05;;;;;;;28.31;38.98;98880.47;5053647;28;20189;-54
2022/09/05 12:35:54;;;;;;;3.90;1.55;;;;;;;28.35;39.08;98887.03;5053898;28;20614;-54
2022/09/05 12:38:43;;;;;;;1.95;1.85;;;;;;;28.38;40.11;98873.31;5053871;28;20173;-54
2022/09/05 12:41:18;;;;;;;1.80;1.70;;;;;;;28.40;38.39;98878.44;5053871;28;20187;-54
2022/09/05 12:43:54;;;;;;;2.05;1.85;;;;;;;28.46;39.20;98873.09;5035644;28;20183;-54